createdAt,value
2022-09-22T00:01:07.610Z,45.33
2022-09-22T00:03:40.107Z,42.10
2022-09-22T00:06:10.027Z,36.83
2022-09-22T00:08:39.237Z,31.25
2022-09-22T00:11:13.868Z,29.52
2022-09-22T00:16:09.919Z,28.67
2022-09-22T00:18:36.666Z,28.88
2022-09-22T00:21:15.747Z,30.15
2022-09-22T00:23:43.066Z,29.75
2022-09-22T00:26:13.846Z,31.05
2022-09-22T00:28:41.837Z,29.83
2022-09-22T00:31:12.499Z,30.27
2022-09-22T00:33:40.815Z,32.97
2022-09-22T00:36:07.686Z,36.17
2022-09-22T00:38:35.126Z,36.90
2022-09-22T00:41:02.168Z,37.55
2022-09-22T00:43:30.688Z,38.78
2022-09-22T00:46:25.858Z,42.20
2022-09-22T00:48:59.566Z,44.03
2022-09-22T00:51:31.019Z,46.60
2022-09-22T00:54:00.502Z,45.97
2022-09-22T00:56:31.847Z,50.33
2022-09-22T00:59:03.161Z,50.33
2022-09-22T01:01:29.921Z,51.38
2022-09-22T01:03:56.872Z,52.92
2022-09-22T01:06:27.885Z,52.58
2022-09-22T01:08:55.853Z,51.13
2022-09-22T01:11:24.170Z,51.20
2022-09-22T01:14:35.819Z,51.72
2022-09-22T01:17:09.171Z,53.47
2022-09-22T01:20:03.528Z,56.78
2022-09-22T01:22:42.232Z,54.72
2022-09-22T01:25:44.462Z,56.42
2022-09-22T01:28:38.655Z,57.53
2022-09-22T01:31:14.786Z,56.47
2022-09-22T01:33:48.654Z,56.78
2022-09-22T01:36:41.304Z,56.37
2022-09-22T01:39:21.283Z,56.78
2022-09-22T01:41:56.491Z,88.80
2022-09-22T01:44:35.449Z,57.88
2022-09-22T01:47:07.398Z,57.08
2022-09-22T01:49:38.334Z,57.28
2022-09-22T01:52:11.971Z,56.97
2022-09-22T01:54:49.679Z,57.95
2022-09-22T01:57:24.440Z,55.83
2022-09-22T01:59:55.220Z,55.45
2022-09-22T02:02:33.472Z,55.63
2022-09-22T02:05:04.865Z,56.15
2022-09-22T02:07:37.247Z,57.65
2022-09-22T02:10:09.521Z,63.58
2022-09-22T02:12:36.871Z,67.55
2022-09-22T02:15:30.243Z,83.88
2022-09-22T02:18:03.021Z,86.13
2022-09-22T02:20:30.259Z,94.95
2022-09-22T02:22:57.371Z,96.63
2022-09-22T02:25:24.954Z,100.07
2022-09-22T02:27:53.650Z,111.57
2022-09-22T02:30:20.304Z,113.45
2022-09-22T02:32:49.437Z,114.00
2022-09-22T02:35:16.407Z,137.50
2022-09-22T02:37:55.434Z,137.63
2022-09-22T02:40:51.164Z,137.98
2022-09-22T02:43:32.314Z,158.18
2022-09-22T02:46:13.428Z,172.60
2022-09-22T02:48:47.882Z,188.07
2022-09-22T02:51:15.285Z,216.07
2022-09-22T02:53:41.853Z,198.20
2022-09-22T02:56:08.470Z,203.13
2022-09-22T02:58:34.971Z,207.18
2022-09-22T03:01:01.458Z,189.63
2022-09-22T03:03:27.966Z,177.02
2022-09-22T03:05:54.458Z,204.23
2022-09-22T03:08:21.006Z,207.63
2022-09-22T03:10:47.541Z,199.82
2022-09-22T03:13:16.814Z,206.63
2022-09-22T03:15:45.728Z,201.93
2022-09-22T03:18:12.594Z,219.55
2022-09-22T03:20:39.120Z,225.10
2022-09-22T03:23:05.763Z,231.05
2022-09-22T03:25:32.928Z,250.98
2022-09-22T03:27:59.462Z,252.73
2022-09-22T03:30:26.074Z,257.30
2022-09-22T03:32:52.579Z,323.02
2022-09-22T03:35:19.145Z,286.52
2022-09-22T03:37:46.945Z,300.08
2022-09-22T03:40:13.700Z,321.58
2022-09-22T03:42:40.376Z,355.05
2022-09-22T03:45:07.308Z,374.23
2022-09-22T03:47:33.897Z,383.23
2022-09-22T03:50:00.416Z,379.48
2022-09-22T03:52:27.405Z,390.30
2022-09-22T03:54:54.515Z,382.02
2022-09-22T03:57:21.021Z,379.85
2022-09-22T03:59:47.518Z,398.52
2022-09-22T04:02:14.191Z,375.85
2022-09-22T04:04:41.182Z,368.85
2022-09-22T04:07:07.768Z,370.55
2022-09-22T04:09:35.068Z,366.08
2022-09-22T04:12:02.123Z,374.92
2022-09-22T04:14:28.673Z,372.48
2022-09-22T04:16:55.258Z,368.52
2022-09-22T04:19:22.817Z,370.58
2022-09-22T04:21:53.193Z,405.33
2022-09-22T04:24:21.257Z,394.60
2022-09-22T04:27:02.165Z,390.35
2022-09-22T04:29:34.351Z,383.60
2022-09-22T04:32:01.039Z,387.65
2022-09-22T04:34:27.591Z,418.48
2022-09-22T04:36:54.061Z,402.55
2022-09-22T04:39:23.777Z,386.98
2022-09-22T04:41:50.973Z,368.73
2022-09-22T04:44:17.468Z,357.38
2022-09-22T04:46:46.243Z,367.05
2022-09-22T04:49:16.126Z,356.50
2022-09-22T04:51:42.820Z,350.05
2022-09-22T04:54:09.402Z,371.65
2022-09-22T04:56:35.899Z,363.35
2022-09-22T04:59:02.591Z,360.42
2022-09-22T05:01:29.188Z,346.10
2022-09-22T05:03:55.697Z,351.98
2022-09-22T05:06:22.269Z,350.38
2022-09-22T05:08:48.758Z,346.25
2022-09-22T05:11:15.702Z,344.80
2022-09-22T05:13:42.189Z,337.63
2022-09-22T05:16:08.963Z,335.77
2022-09-22T05:18:35.692Z,342.15
2022-09-22T05:21:02.458Z,327.55
2022-09-22T05:23:29.282Z,337.10
2022-09-22T05:25:56.991Z,338.77
2022-09-22T05:28:24.379Z,330.05
2022-09-22T05:30:51.913Z,327.48
2022-09-22T05:33:18.658Z,373.75
2022-09-22T05:35:45.598Z,339.88
2022-09-22T05:38:12.087Z,332.52
2022-09-22T05:40:38.705Z,328.63
2022-09-22T05:43:05.371Z,331.33
2022-09-22T05:45:32.115Z,334.00
2022-09-22T05:47:58.643Z,338.35
2022-09-22T05:50:25.193Z,329.38
2022-09-22T05:52:51.922Z,328.77
2022-09-22T05:55:18.719Z,345.58
2022-09-22T05:57:45.247Z,340.67
2022-09-22T06:00:12.324Z,339.33
2022-09-22T06:02:39.465Z,339.60
2022-09-22T06:05:06.819Z,340.95
2022-09-22T06:07:33.534Z,346.45
2022-09-22T06:10:00.032Z,347.85
2022-09-22T06:12:26.543Z,350.38
2022-09-22T06:14:53.018Z,367.48
2022-09-22T06:17:19.515Z,345.58
2022-09-22T06:19:49.859Z,349.15
2022-09-22T06:22:17.963Z,349.48
2022-09-22T06:24:44.742Z,351.92
2022-09-22T06:27:11.296Z,361.95
2022-09-22T06:29:38.062Z,364.90
2022-09-22T06:32:07.955Z,368.05
2022-09-22T06:34:35.694Z,357.58
2022-09-22T06:37:02.387Z,362.08
2022-09-22T06:39:29.352Z,354.23
2022-09-22T06:41:59.830Z,371.42
2022-09-22T06:44:27.253Z,377.17
2022-09-22T06:46:53.752Z,397.30
2022-09-22T06:49:20.327Z,406.05
2022-09-22T06:51:49.455Z,401.35
2022-09-22T06:54:16.044Z,403.77
2022-09-22T06:56:45.126Z,422.83
2022-09-22T06:59:13.579Z,404.10
2022-09-22T07:01:42.259Z,399.67
2022-09-22T07:04:10.409Z,396.58
2022-09-22T07:06:37.408Z,392.00
2022-09-22T07:09:05.494Z,394.35
2022-09-22T07:11:34.281Z,348.50
2022-09-22T07:14:04.067Z,344.08
2022-09-22T07:16:30.719Z,309.27
2022-09-22T07:19:00.863Z,142.13
2022-09-22T07:21:32.754Z,203.73
2022-09-22T07:23:59.438Z,109.53
2022-09-22T07:26:32.600Z,167.95
2022-09-22T07:29:06.133Z,142.63
2022-09-22T07:31:34.814Z,59.03
2022-09-22T07:34:01.654Z,61.38
2022-09-22T07:36:31.551Z,41.72
2022-09-22T07:39:04.617Z,41.42
2022-09-22T07:41:32.642Z,43.58
2022-09-22T07:44:20.791Z,37.88
2022-09-22T07:46:47.690Z,32.83
2022-09-22T07:49:19.567Z,33.58
2022-09-22T07:51:46.341Z,35.22
2022-09-22T07:54:13.076Z,28.08
2022-09-22T07:56:44.787Z,25.58
2022-09-22T07:59:13.777Z,24.92
2022-09-22T08:01:44.147Z,25.80
2022-09-22T08:04:16.656Z,25.90
2022-09-22T08:06:44.379Z,24.55
2022-09-22T08:09:12.154Z,24.50
2022-09-22T08:11:39.749Z,23.90
2022-09-22T08:14:11.472Z,26.42
2022-09-22T08:16:40.277Z,24.83
2022-09-22T08:19:14.508Z,30.30
2022-09-22T08:21:48.298Z,25.75
2022-09-22T08:24:21.163Z,45.67
2022-09-22T08:26:50.387Z,43.10
2022-09-22T08:29:16.924Z,65.78
2022-09-22T08:31:45.282Z,64.25
2022-09-22T08:34:13.951Z,62.08
2022-09-22T08:36:47.074Z,66.68
2022-09-22T08:39:14.958Z,58.88
2022-09-22T08:41:44.389Z,44.42
2022-09-22T08:44:10.825Z,57.65
2022-09-22T08:46:41.117Z,37.75
2022-09-22T08:49:51.443Z,29.10
2022-09-22T08:52:43.264Z,22.17
2022-09-22T08:55:30.701Z,22.92
2022-09-22T08:58:08.226Z,25.30
2022-09-22T09:00:43.006Z,21.98
2022-09-22T09:03:26.443Z,23.73
2022-09-22T09:06:20.250Z,32.05
2022-09-22T09:09:04.798Z,34.78
2022-09-22T09:11:53.215Z,27.23
2022-09-22T09:14:33.654Z,32.55
2022-09-22T09:17:03.698Z,29.73
2022-09-22T09:19:53.225Z,31.33
2022-09-22T09:22:25.387Z,36.47
2022-09-22T09:27:57.153Z,46.15
2022-09-22T09:30:24.095Z,52.15
2022-09-22T09:32:59.183Z,55.92
2022-09-22T09:35:38.260Z,56.60
2022-09-22T09:38:15.490Z,66.32
2022-09-22T09:40:44.718Z,94.28
2022-09-22T09:43:12.075Z,89.40
2022-09-22T09:45:56.991Z,85.20
2022-09-22T09:48:33.087Z,108.38
2022-09-22T09:51:04.350Z,131.90
2022-09-22T09:53:32.228Z,108.97
2022-09-22T09:55:58.901Z,100.18
2022-09-22T09:58:51.655Z,91.53
2022-09-22T10:01:18.270Z,51.40
2022-09-22T10:03:47.768Z,36.00
2022-09-22T10:06:24.518Z,34.88
2022-09-22T10:08:51.842Z,33.83
2022-09-22T10:11:30.355Z,28.45
2022-09-22T10:13:57.812Z,31.20
2022-09-22T10:16:26.175Z,45.83
2022-09-22T10:18:58.728Z,52.83
2022-09-22T10:21:26.704Z,47.20
2022-09-22T10:23:55.127Z,41.42
2022-09-22T10:26:23.314Z,37.95
2022-09-22T10:29:18.481Z,35.70
2022-09-22T10:32:11.881Z,33.20
2022-09-22T10:34:41.713Z,34.45
2022-09-22T10:37:11.881Z,29.58
2022-09-22T10:39:49.707Z,30.92
2022-09-22T10:42:29.174Z,32.30
2022-09-22T10:45:19.697Z,30.98
2022-09-22T10:47:51.361Z,32.10
2022-09-22T10:50:41.383Z,31.45
2022-09-22T10:53:20.922Z,30.17
2022-09-22T10:56:14.753Z,30.25
2022-09-22T10:59:23.274Z,29.38
2022-09-22T11:02:18.268Z,31.27
2022-09-22T11:08:11.297Z,39.25
2022-09-22T11:11:39.512Z,51.65
2022-09-22T11:14:28.045Z,60.42
2022-09-22T11:17:16.060Z,52.45
2022-09-22T11:19:58.744Z,56.75
2022-09-22T11:22:43.414Z,63.10
2022-09-22T11:25:19.421Z,43.90
2022-09-22T11:27:52.206Z,34.83
2022-09-22T11:30:23.039Z,33.45
2022-09-22T11:33:31.041Z,37.30
2022-09-22T11:36:22.387Z,40.13
2022-09-22T11:39:14.599Z,47.00
2022-09-22T11:41:47.530Z,41.28
2022-09-22T11:44:38.129Z,47.38
2022-09-22T11:47:10.390Z,48.90
2022-09-22T11:50:08.715Z,48.72
2022-09-22T11:52:58.541Z,51.95
2022-09-22T11:55:37.262Z,53.35
2022-09-22T11:58:17.983Z,50.95
2022-09-22T12:01:00.603Z,50.38
2022-09-22T12:03:33.281Z,48.10
2022-09-22T12:06:07.309Z,36.45
2022-09-22T12:08:43.160Z,43.83
2022-09-22T12:11:14.000Z,42.90
2022-09-22T12:13:44.331Z,44.08
2022-09-22T12:16:32.390Z,38.92
2022-09-22T12:19:23.088Z,39.70
2022-09-22T12:22:05.175Z,42.55
2022-09-22T12:24:33.019Z,45.15
2022-09-22T12:27:10.358Z,44.88
2022-09-22T12:29:38.803Z,42.70
2022-09-22T12:32:05.944Z,45.75
2022-09-22T12:34:38.040Z,43.83
2022-09-22T12:37:10.604Z,48.20
2022-09-22T12:39:48.551Z,47.80
2022-09-22T12:42:37.875Z,53.83
2022-09-22T12:45:15.282Z,52.55
2022-09-22T12:47:47.059Z,65.78
2022-09-22T12:50:13.536Z,58.30
2022-09-22T12:52:40.051Z,61.22
2022-09-22T12:55:20.364Z,53.95
2022-09-22T12:57:51.763Z,51.42
2022-09-22T13:00:33.503Z,54.00
2022-09-22T13:03:01.436Z,51.10
2022-09-22T13:05:27.879Z,45.70
2022-09-22T13:07:55.817Z,50.88
2022-09-22T13:10:25.170Z,53.20
2022-09-22T13:13:06.691Z,57.55
2022-09-22T13:16:00.703Z,71.25
2022-09-22T13:18:56.980Z,96.63
2022-09-22T13:21:26.146Z,94.18
2022-09-22T13:24:00.112Z,92.57
2022-09-22T13:29:04.997Z,76.85
2022-09-22T13:31:45.859Z,56.47
2022-09-22T13:34:29.173Z,37.75
2022-09-22T13:37:03.061Z,26.13
2022-09-22T13:42:13.157Z,14.75
2022-09-22T13:44:42.706Z,13.80
2022-09-22T13:47:17.747Z,13.90
2022-09-22T13:49:54.207Z,15.23
2022-09-22T13:52:24.748Z,15.70
2022-09-22T13:55:05.223Z,16.00
2022-09-22T13:57:35.903Z,15.50
2022-09-22T14:00:05.301Z,14.73
2022-09-22T14:02:32.713Z,14.73
2022-09-22T14:05:02.913Z,13.88
2022-09-22T14:07:35.977Z,13.45
2022-09-22T14:10:09.157Z,12.13
2022-09-22T14:12:35.798Z,12.23
2022-09-22T14:15:38.686Z,12.35
2022-09-22T14:18:21.741Z,11.43
2022-09-22T14:20:48.864Z,11.50
2022-09-22T14:23:32.924Z,11.70
2022-09-22T14:26:04.082Z,11.30
2022-09-22T14:28:36.773Z,11.73
2022-09-22T14:31:13.733Z,12.18
2022-09-22T14:33:46.387Z,11.27
2022-09-22T14:36:19.402Z,11.68
2022-09-22T14:38:56.055Z,11.38
2022-09-22T14:41:35.786Z,11.93
2022-09-22T14:44:35.768Z,11.80
2022-09-22T14:47:17.202Z,11.98
2022-09-22T14:49:44.556Z,12.98
2022-09-22T14:52:26.873Z,12.98
2022-09-22T14:54:57.535Z,13.20
2022-09-22T14:57:26.887Z,12.50
2022-09-22T15:00:15.689Z,13.02
2022-09-22T15:02:49.625Z,14.60
2022-09-22T15:05:29.563Z,14.52
2022-09-22T15:07:58.391Z,13.43
2022-09-22T15:10:27.881Z,14.45
2022-09-22T15:12:56.375Z,14.07
2022-09-22T15:15:29.156Z,14.38
2022-09-22T15:18:19.009Z,16.10
2022-09-22T15:20:57.333Z,15.63
2022-09-22T15:23:24.125Z,14.20
2022-09-22T15:25:50.854Z,15.20
2022-09-22T15:28:20.805Z,15.70
2022-09-22T15:30:48.790Z,17.40
2022-09-22T15:33:16.360Z,17.30
2022-09-22T15:35:46.277Z,19.95
2022-09-22T15:38:19.809Z,20.60
2022-09-22T15:40:47.967Z,22.33
2022-09-22T15:43:20.729Z,23.77
2022-09-22T15:45:49.377Z,22.25
2022-09-22T15:48:31.273Z,24.67
2022-09-22T15:51:00.977Z,21.05
2022-09-22T15:53:27.583Z,20.95
2022-09-22T15:55:54.762Z,22.00
2022-09-22T15:58:23.339Z,21.13
2022-09-22T16:00:53.442Z,22.52
2022-09-22T16:03:22.618Z,24.77
2022-09-22T16:05:54.570Z,27.00
2022-09-22T16:08:28.903Z,28.98
2022-09-22T16:10:56.885Z,32.50
2022-09-22T16:13:23.958Z,51.38
2022-09-22T16:15:51.470Z,91.90
2022-09-22T16:18:18.083Z,104.97
2022-09-22T16:20:45.689Z,122.13
2022-09-22T16:23:12.206Z,140.38
2022-09-22T16:25:42.135Z,167.43
2022-09-22T16:28:10.443Z,204.27
2022-09-22T16:30:37.580Z,222.63
2022-09-22T16:33:05.150Z,234.75
2022-09-22T16:35:31.649Z,239.35
2022-09-22T16:37:58.192Z,239.35
2022-09-22T16:40:25.680Z,231.57
2022-09-22T16:42:52.289Z,221.23
2022-09-22T16:45:38.840Z,204.93
2022-09-22T16:48:07.023Z,160.45
2022-09-22T16:50:36.511Z,158.02
2022-09-22T16:53:05.970Z,135.77
2022-09-22T16:55:36.766Z,92.03
2022-09-22T16:58:07.337Z,76.35
2022-09-22T17:00:33.942Z,59.65
2022-09-22T17:03:01.044Z,48.70
2022-09-22T17:05:27.961Z,41.33
2022-09-22T17:07:54.434Z,40.25
2022-09-22T17:10:21.202Z,40.92
2022-09-22T17:12:47.747Z,43.00
2022-09-22T17:15:16.379Z,40.30
2022-09-22T17:17:43.605Z,43.05
2022-09-22T17:20:10.554Z,43.15
2022-09-22T17:22:37.370Z,46.60
2022-09-22T17:25:04.051Z,47.78
2022-09-22T17:27:30.582Z,56.13
2022-09-22T17:29:57.525Z,64.57
2022-09-22T17:32:27.950Z,81.35
2022-09-22T17:34:54.764Z,101.63
2022-09-22T17:37:21.731Z,132.20
2022-09-22T17:39:49.135Z,133.60
2022-09-22T17:42:16.846Z,125.50
2022-09-22T17:44:43.346Z,117.85
2022-09-22T17:47:28.410Z,109.90
2022-09-22T17:50:13.301Z,112.85
2022-09-22T17:52:39.801Z,110.03
2022-09-22T17:55:14.138Z,113.35
2022-09-22T18:00:14.292Z,122.35
2022-09-22T18:02:40.931Z,120.97
2022-09-22T18:05:13.598Z,124.38
2022-09-22T18:07:40.374Z,116.25
2022-09-22T18:10:13.229Z,113.20
2022-09-22T18:12:41.235Z,105.65
2022-09-22T18:15:12.767Z,100.82
2022-09-22T18:17:42.069Z,92.22
2022-09-22T18:20:11.580Z,80.93
2022-09-22T18:22:38.194Z,70.75
2022-09-22T18:25:05.887Z,66.22
2022-09-22T18:27:32.450Z,64.32
2022-09-22T18:29:58.984Z,68.90
2022-09-22T18:32:27.244Z,67.63
2022-09-22T18:34:55.260Z,58.63
2022-09-22T18:37:23.168Z,48.67
2022-09-22T18:39:50.761Z,43.85
2022-09-22T18:42:24.359Z,39.33
2022-09-22T18:44:52.275Z,34.13
2022-09-22T18:47:21.028Z,28.67
2022-09-22T18:49:51.368Z,26.20
2022-09-22T18:52:24.107Z,24.85
2022-09-22T18:54:53.803Z,24.50
2022-09-22T18:57:22.124Z,26.58
2022-09-22T18:59:51.022Z,24.90
2022-09-22T19:02:22.509Z,26.38
2022-09-22T19:04:51.521Z,25.95
2022-09-22T19:07:41.072Z,24.60
2022-09-22T19:10:13.708Z,25.50
2022-09-22T19:12:40.458Z,26.58
2022-09-22T19:15:16.763Z,28.15
2022-09-22T19:17:45.475Z,28.27
2022-09-22T19:20:23.964Z,26.65
2022-09-22T19:22:52.243Z,28.23
2022-09-22T19:25:21.401Z,28.75
2022-09-22T19:27:48.206Z,27.90
2022-09-22T19:30:14.938Z,27.27
2022-09-22T19:32:41.763Z,27.80
2022-09-22T19:35:09.414Z,28.13
2022-09-22T19:37:36.459Z,28.05
2022-09-22T19:40:03.582Z,29.33
2022-09-22T19:42:30.436Z,28.73
2022-09-22T19:44:56.934Z,30.48
2022-09-22T19:47:23.749Z,28.15
2022-09-22T19:49:50.294Z,28.85
2022-09-22T19:52:17.548Z,26.85
2022-09-22T19:54:44.377Z,27.42
2022-09-22T19:57:10.963Z,27.98
2022-09-22T19:59:37.525Z,26.02
2022-09-22T20:02:04.576Z,30.67
2022-09-22T20:04:35.151Z,27.98
2022-09-22T20:07:02.200Z,30.23
2022-09-22T20:09:29.280Z,30.40
2022-09-22T20:11:55.754Z,33.65
2022-09-22T20:14:22.556Z,35.00
2022-09-22T20:16:59.709Z,39.08
2022-09-22T20:19:27.746Z,45.03
2022-09-22T20:22:19.767Z,47.47
2022-09-22T20:24:54.817Z,61.38
2022-09-22T20:27:26.714Z,71.63
2022-09-22T20:29:57.107Z,76.93
2022-09-22T20:32:25.082Z,72.20
2022-09-22T20:34:52.818Z,71.70
2022-09-22T20:37:19.460Z,72.80
2022-09-22T20:39:46.039Z,70.05
2022-09-22T20:42:15.404Z,67.15
2022-09-22T20:44:42.320Z,62.13
2022-09-22T20:47:16.979Z,55.97
2022-09-22T20:52:16.913Z,34.80
2022-09-22T20:54:44.775Z,36.50
2022-09-22T20:57:11.339Z,33.20
2022-09-22T20:59:39.003Z,33.90
2022-09-22T21:02:07.212Z,31.48
2022-09-22T21:04:34.064Z,27.70
2022-09-22T21:07:00.603Z,28.88
2022-09-22T21:09:45.498Z,27.17
2022-09-22T21:12:13.513Z,28.08
2022-09-22T21:14:42.147Z,29.38
2022-09-22T21:17:08.693Z,28.38
2022-09-22T21:19:36.455Z,28.98
2022-09-22T21:22:03.321Z,30.58
2022-09-22T21:24:31.390Z,28.65
2022-09-22T21:26:59.256Z,30.13
2022-09-22T21:29:26.049Z,32.72
2022-09-22T21:31:52.585Z,36.17
2022-09-22T21:34:19.097Z,36.47
2022-09-22T21:36:45.735Z,40.53
2022-09-22T21:39:12.323Z,42.38
2022-09-22T21:41:38.845Z,44.65
2022-09-22T21:44:05.851Z,43.92
2022-09-22T21:46:37.514Z,45.47
2022-09-22T21:49:04.389Z,46.28
2022-09-22T21:51:36.523Z,47.65
2022-09-22T21:54:04.839Z,49.05
2022-09-22T21:56:33.434Z,52.42
2022-09-22T21:59:02.570Z,54.22
2022-09-22T22:01:37.470Z,56.05
2022-09-22T22:04:08.986Z,57.08
2022-09-22T22:06:42.054Z,58.42
2022-09-22T22:09:20.179Z,56.28
2022-09-22T22:11:56.326Z,57.53
2022-09-22T22:14:25.799Z,56.67
2022-09-22T22:16:54.867Z,53.42
2022-09-22T22:19:25.648Z,54.78
2022-09-22T22:21:53.066Z,51.08
2022-09-22T22:24:36.697Z,52.03
2022-09-22T22:27:09.741Z,52.30
2022-09-22T22:29:38.666Z,52.47
2022-09-22T22:32:07.591Z,51.25
2022-09-22T22:34:34.156Z,52.25
2022-09-22T22:37:01.119Z,52.00
2022-09-22T22:39:27.674Z,54.42
2022-09-22T22:41:55.215Z,54.65
2022-09-22T22:44:23.337Z,54.53
2022-09-22T22:46:50.708Z,56.05
2022-09-22T22:49:17.273Z,56.67
2022-09-22T22:51:43.882Z,57.15
2022-09-22T22:54:11.793Z,60.30
2022-09-22T22:56:42.011Z,61.17
2022-09-22T22:59:10.597Z,65.35
2022-09-22T23:01:37.610Z,63.92
2022-09-22T23:04:06.863Z,69.60
2022-09-22T23:06:36.224Z,77.07
2022-09-22T23:09:06.147Z,75.20
2022-09-22T23:11:37.133Z,79.00
2022-09-22T23:14:06.208Z,86.80
2022-09-22T23:16:44.524Z,99.95
2022-09-22T23:19:14.694Z,100.95
2022-09-22T23:21:41.605Z,111.80
2022-09-22T23:24:08.701Z,110.28
2022-09-22T23:26:37.265Z,121.53
2022-09-22T23:29:04.339Z,127.65
2022-09-22T23:31:31.650Z,156.68
2022-09-22T23:33:58.232Z,161.95
2022-09-22T23:36:27.966Z,185.18
2022-09-22T23:38:56.322Z,197.57
2022-09-22T23:41:23.121Z,217.52
2022-09-22T23:43:49.842Z,239.23
2022-09-22T23:46:16.383Z,241.88
2022-09-22T23:48:42.906Z,250.90
2022-09-22T23:51:10.199Z,268.80
2022-09-22T23:53:37.729Z,285.80
2022-09-22T23:56:05.820Z,283.23
2022-09-22T23:58:33.402Z,297.80
